• Join FlightAware (Why Join?)
  • Login
  • US Flag 
11:52AM EDT


 

Airport Tracker/Info


-or-


 

Live Flight TrackerFlight Track Log ✈ UPS1219 ✈ 06-Jun-2013 ✈ KIAD - KSDF

Flight Track Log - Related Links

Times and Time Zones

All times are in EDT time to prevent confusion due to time zone crossing. See the UPS1219 flight status page for this flight to view local times or setup timezone preferences in your user account.

Time Position Orientation Groundspeed Altitude Reporting Facility
EDT Latitude Longitude Course Direction KTS MPH feet Rate Location/Type
10:58PM 38.9400 -77.5190 247° West 182 209 2,500  Level FlightAware
10:59PM 38.9300 -77.5500 247° West 209 241 3,600 2,280 Climbing FlightAware
10:59PM 38.9170 -77.5880 246° West 247 284 4,800 3,000 Climbing FlightAware
11:00PM 38.9050 -77.6210 245° Southwest 249 287 6,400 3,120 Climbing FlightAware
11:00PM 38.8970 -77.6410 243° Southwest 253 291 6,900 2,100 Climbing FlightAware
11:00PM 38.8800 -77.6820 242° Southwest 264 304 8,000 2,820 Climbing FlightAware
11:01PM 38.8670 -77.7110 240° Southwest 272 313 9,300 2,340 Climbing FlightAware
11:02PM 38.8360 -77.7840 241° Southwest 286 329 10,800 2,700 Climbing FlightAware
11:02PM 38.8110 -77.8440 242° Southwest 286 329 13,400 3,660 Climbing FlightAware
11:02PM 38.8030 -77.8680 247° West 292 336 14,200 3,180 Climbing FlightAware
11:03PM 38.8030 -77.8940 270° West 300 345 15,000 2,820 Climbing FlightAware
11:04PM 38.8070 -77.9940 273° West 314 361 17,500 2,580 Climbing FlightAware
11:04PM 38.8050 -78.0700 268° West 331 381 19,100 1,680 Climbing FlightAware
11:05PM 38.7980 -78.1520 264° West 369 425 19,800 1,020 Climbing FlightAware
11:06PM 38.7880 -78.2550 263° West 407 468 20,600 1,620 Climbing FlightAware
11:06PM 38.7770 -78.3640 263° West 416 479 22,300 2,160 Climbing FlightAware
11:07PM 38.7680 -78.4500 262° West 425 489 23,500 1,920 Climbing FlightAware
11:08PM 38.7570 -78.5640 263° West 435 501 24,900 1,680 Climbing FlightAware
11:09PM 38.7450 -78.6810 263° West 447 514 26,100 1,560 Climbing FlightAware
11:09PM 38.7320 -78.7720 260° West 452 520 27,000 2,280 Climbing FlightAware
11:10PM 38.7110 -78.8880 257° West 435 501 29,200 2,520 Climbing FlightAware
11:11PM 38.6940 -78.9850 257° West 432 497 30,600 1,980 Climbing FlightAware
11:11PM 38.6720 -79.1020 256° West 430 495 32,100 1,800 Climbing FlightAware
11:12PM 38.6520 -79.2080 256° West 426 490 33,300 1,800 Climbing FlightAware
11:13PM 38.6330 -79.3100 257° West 414 476 34,700 1,920 Climbing FlightAware
11:13PM 38.6160 -79.4020 257° West 393 452 36,000 960 Climbing FlightAware
11:14PM 38.5990 -79.4940 257° West 391 450 36,000  Level FlightAware
11:15PM 38.5780 -79.6030 256° West 400 460 36,000  Level FlightAware
11:16PM 38.5610 -79.6930 256° West 404 465 36,000  Level FlightAware
11:16PM 38.5420 -79.7920 256° West 403 464 36,000  Level FlightAware
11:17PM 38.5230 -79.8890 256° West 401 461 36,000  Level FlightAware
11:18PM 38.5040 -79.9900 257° West 400 460 36,000  Level FlightAware
11:19PM 38.4790 -80.1190 256° West 400 460 36,000  Level FlightAware
11:19PM 38.4610 -80.2100 256° West 399 459 36,000  Level FlightAware
11:20PM 38.4410 -80.3110 256° West 399 459 36,000  Level FlightAware
11:21PM 38.4230 -80.4040 256° West 400 460 36,000  Level FlightAware
11:21PM 38.4030 -80.5050 256° West 401 461 36,000  Level FlightAware
11:22PM 38.3850 -80.5940 256° West 401 461 36,000  Level FlightAware
11:23PM 38.3670 -80.6860 256° West 401 461 36,000  Level FlightAware
11:23PM 38.3450 -80.7930 255° West 400 460 36,000  Level FlightAware
11:24PM 38.3260 -80.8890 256° West 400 460 36,000  Level FlightAware
11:25PM 38.3080 -80.9780 256° West 401 461 36,000  Level FlightAware
11:26PM 38.2900 -81.0700 256° West 401 461 36,000  Level FlightAware
11:26PM 38.2680 -81.1730 255° West 405 466 36,000  Level FlightAware
11:27PM 38.2500 -81.2580 255° West 406 467 36,000  Level FlightAware
11:28PM 38.2290 -81.3620 256° West 406 467 36,000  Level FlightAware
11:28PM 38.2080 -81.4660 256° West 406 467 36,000  Level FlightAware
11:29PM 38.1880 -81.5580 255° West 407 468 36,000  Level FlightAware
11:30PM 38.1690 -81.6530 256° West 407 468 36,000  Level FlightAware
11:30PM 38.1470 -81.7548 255° West 407 468 36,000  Level FlightAware ADS-B
11:31PM 38.1335 -81.8195 255° West 409 471 36,000  Level FlightAware ADS-B
11:31PM 38.1223 -81.8926 259° West 412 474 36,000  Level FlightAware ADS-B
11:32PM 38.1115 -81.9714 260° West 413 475 36,000  Level FlightAware ADS-B
11:33PM 38.1000 -82.0550 260° West 414 476 36,000  Level FlightAware
11:33PM 38.0873 -82.1460 260° West 414 476 36,000  Level FlightAware ADS-B
11:34PM 38.0731 -82.2463 260° West 414 476 36,000  Level FlightAware ADS-B
11:35PM 38.0578 -82.3518 260° West 416 479 36,000  Level FlightAware ADS-B
11:35PM 38.0435 -82.4503 260° West 418 481 36,000  Level FlightAware ADS-B
11:36PM 38.0290 -82.5516 260° West 419 482 36,000  Level FlightAware ADS-B
11:37PM 38.0182 -82.6242 259° West 420 483 36,000  Level FlightAware ADS-B
11:37PM 38.0073 -82.6993 260° West 421 484 36,000  Level FlightAware ADS-B
11:38PM 37.9940 -82.7912 260° West 422 486 36,000  Level FlightAware ADS-B
11:39PM 37.9710 -82.9440 259° West 422 486 36,000  Level FlightAware
11:40PM 37.9530 -83.0660 259° West 423 487 36,000  Level FlightAware
11:40PM 37.9380 -83.1660 259° West 424 488 36,000  Level FlightAware
11:41PM 37.9300 -83.2199 259° West 429 494 36,000  Level FlightAware ADS-B
11:41PM 37.9170 -83.3037 259° West 429 494 36,000  Level FlightAware ADS-B
11:42PM 37.9036 -83.3922 259° West 427 491 36,000  Level FlightAware ADS-B
11:42PM 37.8914 -83.4727 259° West 424 488 36,000  Level FlightAware ADS-B
11:43PM 37.8796 -83.5484 259° West 427 491 36,000 -300 Level FlightAware ADS-B
11:44PM 37.8635 -83.6541 259° West 428 493 35,700 -2,340 Descending FlightAware ADS-B
11:45PM 37.8275 -83.8850 259° West 427 491 30,700 -3,240 Descending FlightAware ADS-B
11:46PM 37.8087 -84.0039 259° West 429 494 28,000 -3,120 Descending FlightAware ADS-B
11:46PM 37.7968 -84.0797 259° West 426 490 26,600 -2,820 Descending FlightAware ADS-B
11:47PM 37.7818 -84.1733 259° West 429 494 24,800 -2,760 Descending FlightAware ADS-B
11:49PM 37.7300 -84.4960 259° West 398 458 18,600 -2,760 Descending FlightAware
11:50PM 37.7150 -84.5850 258° West 388 447 16,800 -1,500 Descending FlightAware
11:51PM 37.7010 -84.6740 259° West 386 444 16,500 -240 Descending FlightAware
11:51PM 37.6900 -84.7410 258° West 386 444 16,500  Level FlightAware
11:52PM 37.6740 -84.8310 257° West 386 444 16,500  Level FlightAware
11:53PM 37.6630 -84.8990 258° West 386 444 16,500  Level FlightAware
11:54PM 37.6480 -84.9890 258° West 386 444 16,500 -3,120 Level FlightAware
11:56PM 37.7460 -85.2090 299° West 281 323 7,200 -3,600 Descending FlightAware
11:56PM 37.7420 -85.2650 265° West 280 322 6,700 -1,020 Descending FlightAware
11:57PM 37.7390 -85.3110 265° West 280 322 6,200 -660 Descending FlightAware
12:02AM 37.9550 -85.6530 309° West 229 264 3,100 -540 Descending FlightAware
12:03AM 37.9870 -85.6620 348° North 214 246 3,100  Level FlightAware
12:03AM 38.0130 -85.6710 345° North 206 237 3,100  Level FlightAware
12:04AM 38.0360 -85.6800 343° North 199 229 3,100 -480 Level FlightAware
12:04AM 38.0590 -85.6880 345° North 201 231 2,700 -960 Descending FlightAware
12:05AM 38.0870 -85.6970 346° North 173 199 2,200 -1,020 Descending FlightAware
12:05AM 38.1030 -85.7020 346° North 156 180 1,800 -780 Descending FlightAware
12:05AM 38.1240 -85.7100 343° North 127 146 1,500 -720 Descending FlightAware
12:06AM 38.1400 -85.7150 346° North 128 147 1,100 -720 Descending FlightAware
12:06AM 38.1490 -85.7180 345° North 128 147 1,000 -600 Descending FlightAware
12:07AM 38.1650 -85.7230 346° North 128 147 700 -360 Descending FlightAware
12:07AM 38.1780 -85.7280 343° North 128 147 700  Level FlightAware
12:08AM 38.1840 -85.7320 332° Northwest 22 25 -1,140 Descending FlightAware
12:08AM 38.1830 -85.7330 218° Southwest 23 26  Level FlightAware
12:08AM 38.1790 -85.7340 191° South 26 30  Level FlightAware
12:09AM 38.1790 -85.7380 270° West 28 32  Level FlightAware
12:10AM 38.1800 -85.7420 288° West 25 29  Level FlightAware
12:10AM 38.1790 -85.7430 218° Southwest 19 22  Level FlightAware
12:10AM 38.1780 -85.7430 180° South 16 18  Level FlightAware
12:14AM 38.1741 -85.7365 127° Southeast  Level Estimated